METAR Data
IDs: Format: Raw Decoded Include TAF

Data at: 0350 UTC 06 Dec 2019

METAR for:KOOA (Oskaloosa Muni, IA, US)
Text:KOOA 060335Z AUTO 31007KT 10SM CLR 05/02 A2997 RMK AO2 T00450016
Temperature: 4.5°C ( 40°F)
Dewpoint: 1.6°C ( 35°F) [RH = 81%]
Pressure (altimeter):29.97 inches Hg (1015.0 mb)
Winds:from the NW (310 degrees) at 8 MPH (7 knots; 3.6 m/s)
Visibility:10 or more sm (16+ km)
Ceiling:at least 12,000 feet AGL
Clouds:sky clear below 12,000 feet AGL
QC Flag:automated observation with no human augmentation